sensor_id;sensor_type;location;lat;lon;timestamp;P1;durP1;ratioP1;P2;durP2;ratioP2
50789;SDS011;37287;47.554;7.844;2023-02-12T00:01:09;13.50;;;7.57;;
50789;SDS011;37287;47.554;7.844;2023-02-12T00:03:37;15.15;;;7.60;;
50789;SDS011;37287;47.554;7.844;2023-02-12T00:06:05;12.98;;;7.85;;
50789;SDS011;37287;47.554;7.844;2023-02-12T00:08:33;11.98;;;7.13;;
50789;SDS011;37287;47.554;7.844;2023-02-12T00:11:05;13.52;;;7.25;;
50789;SDS011;37287;47.554;7.844;2023-02-12T00:13:34;11.90;;;6.93;;
50789;SDS011;37287;47.554;7.844;2023-02-12T00:16:04;10.35;;;6.82;;
50789;SDS011;37287;47.554;7.844;2023-02-12T00:18:31;14.77;;;8.07;;
50789;SDS011;37287;47.554;7.844;2023-02-12T00:20:58;10.82;;;6.55;;
50789;SDS011;37287;47.554;7.844;2023-02-12T00:23:32;10.35;;;7.25;;
50789;SDS011;37287;47.554;7.844;2023-02-12T00:25:59;12.27;;;7.13;;
50789;SDS011;37287;47.554;7.844;2023-02-12T00:28:27;15.27;;;8.48;;
50789;SDS011;37287;47.554;7.844;2023-02-12T00:30:54;14.05;;;7.38;;
50789;SDS011;37287;47.554;7.844;2023-02-12T00:33:21;12.20;;;6.90;;
50789;SDS011;37287;47.554;7.844;2023-02-12T00:35:55;12.52;;;7.13;;
50789;SDS011;37287;47.554;7.844;2023-02-12T00:38:26;12.68;;;7.35;;
50789;SDS011;37287;47.554;7.844;2023-02-12T00:40:53;11.45;;;6.80;;
50789;SDS011;37287;47.554;7.844;2023-02-12T00:43:20;15.30;;;7.43;;
50789;SDS011;37287;47.554;7.844;2023-02-12T00:45:48;12.27;;;7.43;;
50789;SDS011;37287;47.554;7.844;2023-02-12T00:48:14;10.15;;;6.45;;
50789;SDS011;37287;47.554;7.844;2023-02-12T00:50:45;11.90;;;6.78;;
50789;SDS011;37287;47.554;7.844;2023-02-12T00:53:14;13.98;;;7.15;;
50789;SDS011;37287;47.554;7.844;2023-02-12T00:55:41;13.63;;;7.28;;
50789;SDS011;37287;47.554;7.844;2023-02-12T00:58:08;12.80;;;6.68;;
50789;SDS011;37287;47.554;7.844;2023-02-12T01:00:35;12.85;;;7.82;;
50789;SDS011;37287;47.554;7.844;2023-02-12T01:03:02;13.05;;;7.45;;
50789;SDS011;37287;47.554;7.844;2023-02-12T01:05:31;12.07;;;7.28;;
50789;SDS011;37287;47.554;7.844;2023-02-12T01:07:58;15.85;;;9.27;;
50789;SDS011;37287;47.554;7.844;2023-02-12T01:10:25;17.35;;;8.55;;
50789;SDS011;37287;47.554;7.844;2023-02-12T01:12:51;13.15;;;7.75;;
50789;SDS011;37287;47.554;7.844;2023-02-12T01:15:18;12.07;;;7.50;;
50789;SDS011;37287;47.554;7.844;2023-02-12T01:17:47;13.73;;;8.05;;
50789;SDS011;37287;47.554;7.844;2023-02-12T01:20:16;12.65;;;7.30;;
50789;SDS011;37287;47.554;7.844;2023-02-12T01:22:44;14.65;;;8.57;;
50789;SDS011;37287;47.554;7.844;2023-02-12T01:25:10;18.05;;;9.20;;
50789;SDS011;37287;47.554;7.844;2023-02-12T01:27:39;17.45;;;9.90;;
50789;SDS011;37287;47.554;7.844;2023-02-12T01:30:08;20.33;;;11.77;;
50789;SDS011;37287;47.554;7.844;2023-02-12T01:32:37;27.75;;;15.88;;
50789;SDS011;37287;47.554;7.844;2023-02-12T01:35:03;17.58;;;10.90;;
50789;SDS011;37287;47.554;7.844;2023-02-12T01:37:36;31.92;;;17.15;;
50789;SDS011;37287;47.554;7.844;2023-02-12T01:40:03;21.73;;;12.00;;
50789;SDS011;37287;47.554;7.844;2023-02-12T01:42:32;22.50;;;12.57;;
50789;SDS011;37287;47.554;7.844;2023-02-12T01:47:42;25.30;;;15.27;;
50789;SDS011;37287;47.554;7.844;2023-02-12T01:50:11;21.00;;;11.88;;
50789;SDS011;37287;47.554;7.844;2023-02-12T01:52:43;22.08;;;13.40;;
50789;SDS011;37287;47.554;7.844;2023-02-12T01:55:15;25.40;;;13.50;;
50789;SDS011;37287;47.554;7.844;2023-02-12T01:57:44;17.23;;;10.40;;
50789;SDS011;37287;47.554;7.844;2023-02-12T02:00:14;18.00;;;10.43;;
50789;SDS011;37287;47.554;7.844;2023-02-12T02:02:46;17.83;;;9.52;;
50789;SDS011;37287;47.554;7.844;2023-02-12T02:05:21;13.43;;;8.32;;
50789;SDS011;37287;47.554;7.844;2023-02-12T02:07:56;14.90;;;9.30;;
50789;SDS011;37287;47.554;7.844;2023-02-12T02:10:22;17.83;;;10.15;;
50789;SDS011;37287;47.554;7.844;2023-02-12T02:12:49;15.98;;;9.48;;
50789;SDS011;37287;47.554;7.844;2023-02-12T02:15:36;15.82;;;9.25;;
50789;SDS011;37287;47.554;7.844;2023-02-12T02:18:10;18.05;;;10.23;;
50789;SDS011;37287;47.554;7.844;2023-02-12T02:23:38;14.20;;;9.00;;
50789;SDS011;37287;47.554;7.844;2023-02-12T02:26:21;20.02;;;10.80;;
50789;SDS011;37287;47.554;7.844;2023-02-12T02:32:13;14.60;;;9.52;;
50789;SDS011;37287;47.554;7.844;2023-02-12T02:34:48;13.75;;;8.32;;
50789;SDS011;37287;47.554;7.844;2023-02-12T02:37:30;16.98;;;8.70;;
50789;SDS011;37287;47.554;7.844;2023-02-12T02:45:16;14.50;;;7.93;;
50789;SDS011;37287;47.554;7.844;2023-02-12T02:48:03;14.35;;;8.38;;
50789;SDS011;37287;47.554;7.844;2023-02-12T02:50:45;14.85;;;7.70;;
50789;SDS011;37287;47.554;7.844;2023-02-12T02:53:26;13.57;;;7.88;;
50789;SDS011;37287;47.554;7.844;2023-02-12T02:55:57;13.40;;;8.00;;
50789;SDS011;37287;47.554;7.844;2023-02-12T02:58:29;13.00;;;7.45;;
50789;SDS011;37287;47.554;7.844;2023-02-12T03:01:02;14.02;;;8.40;;
50789;SDS011;37287;47.554;7.844;2023-02-12T03:06:13;14.85;;;8.57;;
50789;SDS011;37287;47.554;7.844;2023-02-12T03:08:48;13.07;;;8.18;;
50789;SDS011;37287;47.554;7.844;2023-02-12T03:11:23;13.15;;;8.05;;
50789;SDS011;37287;47.554;7.844;2023-02-12T03:13:54;13.55;;;8.10;;
50789;SDS011;37287;47.554;7.844;2023-02-12T03:21:29;14.10;;;7.40;;
50789;SDS011;37287;47.554;7.844;2023-02-12T03:24:07;12.90;;;8.02;;
50789;SDS011;37287;47.554;7.844;2023-02-12T03:26:45;12.07;;;7.47;;
50789;SDS011;37287;47.554;7.844;2023-02-12T03:29:15;12.93;;;7.40;;
50789;SDS011;37287;47.554;7.844;2023-02-12T03:31:57;10.93;;;6.97;;
50789;SDS011;37287;47.554;7.844;2023-02-12T03:37:35;18.02;;;8.68;;
50789;SDS011;37287;47.554;7.844;2023-02-12T03:40:15;22.05;;;12.80;;
50789;SDS011;37287;47.554;7.844;2023-02-12T03:42:50;14.40;;;8.55;;
50789;SDS011;37287;47.554;7.844;2023-02-12T03:45:37;12.18;;;8.00;;
50789;SDS011;37287;47.554;7.844;2023-02-12T03:48:12;16.00;;;7.53;;
50789;SDS011;37287;47.554;7.844;2023-02-12T03:50:55;13.23;;;7.78;;
50789;SDS011;37287;47.554;7.844;2023-02-12T03:53:26;12.70;;;7.18;;
50789;SDS011;37287;47.554;7.844;2023-02-12T03:55:57;19.15;;;10.20;;
50789;SDS011;37287;47.554;7.844;2023-02-12T03:58:31;16.77;;;8.80;;
50789;SDS011;37287;47.554;7.844;2023-02-12T04:01:00;14.85;;;8.75;;
50789;SDS011;37287;47.554;7.844;2023-02-12T04:03:29;16.08;;;9.57;;
50789;SDS011;37287;47.554;7.844;2023-02-12T04:05:57;14.23;;;8.05;;
50789;SDS011;37287;47.554;7.844;2023-02-12T04:08:23;14.63;;;8.25;;
50789;SDS011;37287;47.554;7.844;2023-02-12T04:16:25;13.45;;;8.63;;
50789;SDS011;37287;47.554;7.844;2023-02-12T04:19:14;16.33;;;9.02;;
50789;SDS011;37287;47.554;7.844;2023-02-12T04:21:52;13.02;;;8.63;;
50789;SDS011;37287;47.554;7.844;2023-02-12T04:24:28;12.85;;;7.90;;
50789;SDS011;37287;47.554;7.844;2023-02-12T04:27:10;16.30;;;9.32;;
50789;SDS011;37287;47.554;7.844;2023-02-12T04:29:50;16.10;;;9.50;;
50789;SDS011;37287;47.554;7.844;2023-02-12T04:32:32;16.70;;;9.88;;
50789;SDS011;37287;47.554;7.844;2023-02-12T04:40:31;15.73;;;8.73;;
50789;SDS011;37287;47.554;7.844;2023-02-12T04:42:58;12.73;;;6.88;;
50789;SDS011;37287;47.554;7.844;2023-02-12T04:45:26;11.32;;;6.72;;
50789;SDS011;37287;47.554;7.844;2023-02-12T04:47:56;12.25;;;7.03;;
50789;SDS011;37287;47.554;7.844;2023-02-12T04:50:26;16.48;;;9.15;;
50789;SDS011;37287;47.554;7.844;2023-02-12T04:53:02;13.63;;;7.13;;
50789;SDS011;37287;47.554;7.844;2023-02-12T04:55:29;11.80;;;7.40;;
50789;SDS011;37287;47.554;7.844;2023-02-12T04:57:55;12.35;;;6.80;;
50789;SDS011;37287;47.554;7.844;2023-02-12T05:00:30;11.73;;;7.07;;
50789;SDS011;37287;47.554;7.844;2023-02-12T05:02:57;10.05;;;6.97;;
50789;SDS011;37287;47.554;7.844;2023-02-12T05:05:24;12.13;;;6.53;;
50789;SDS011;37287;47.554;7.844;2023-02-12T05:07:50;16.65;;;8.02;;
50789;SDS011;37287;47.554;7.844;2023-02-12T05:10:17;13.00;;;8.38;;
50789;SDS011;37287;47.554;7.844;2023-02-12T05:12:46;12.00;;;7.75;;
50789;SDS011;37287;47.554;7.844;2023-02-12T05:15:14;12.00;;;7.13;;
50789;SDS011;37287;47.554;7.844;2023-02-12T05:17:41;13.23;;;7.20;;
50789;SDS011;37287;47.554;7.844;2023-02-12T05:20:07;12.05;;;6.95;;
50789;SDS011;37287;47.554;7.844;2023-02-12T05:22:35;11.18;;;7.25;;
50789;SDS011;37287;47.554;7.844;2023-02-12T05:25:04;17.58;;;9.85;;
50789;SDS011;37287;47.554;7.844;2023-02-12T05:27:31;14.50;;;8.20;;
50789;SDS011;37287;47.554;7.844;2023-02-12T05:30:00;18.05;;;9.30;;
50789;SDS011;37287;47.554;7.844;2023-02-12T05:32:27;12.93;;;7.22;;
50789;SDS011;37287;47.554;7.844;2023-02-12T05:34:54;12.98;;;7.35;;
50789;SDS011;37287;47.554;7.844;2023-02-12T05:37:27;13.77;;;8.32;;
50789;SDS011;37287;47.554;7.844;2023-02-12T05:39:53;10.55;;;6.90;;
50789;SDS011;37287;47.554;7.844;2023-02-12T05:42:20;12.93;;;7.82;;
50789;SDS011;37287;47.554;7.844;2023-02-12T05:44:48;15.07;;;8.27;;
50789;SDS011;37287;47.554;7.844;2023-02-12T05:47:16;10.65;;;7.25;;
50789;SDS011;37287;47.554;7.844;2023-02-12T05:49:43;11.95;;;7.45;;
50789;SDS011;37287;47.554;7.844;2023-02-12T05:52:09;10.98;;;7.07;;
50789;SDS011;37287;47.554;7.844;2023-02-12T05:54:36;13.07;;;7.28;;
50789;SDS011;37287;47.554;7.844;2023-02-12T05:57:02;12.07;;;7.20;;
50789;SDS011;37287;47.554;7.844;2023-02-12T05:59:35;15.32;;;8.48;;
50789;SDS011;37287;47.554;7.844;2023-02-12T06:02:01;13.32;;;7.72;;
50789;SDS011;37287;47.554;7.844;2023-02-12T06:04:29;11.55;;;7.00;;
50789;SDS011;37287;47.554;7.844;2023-02-12T06:06:56;14.13;;;7.75;;
50789;SDS011;37287;47.554;7.844;2023-02-12T06:09:25;13.20;;;7.75;;
50789;SDS011;37287;47.554;7.844;2023-02-12T06:11:52;11.43;;;7.25;;
50789;SDS011;37287;47.554;7.844;2023-02-12T06:14:20;11.13;;;7.15;;
50789;SDS011;37287;47.554;7.844;2023-02-12T06:16:47;12.70;;;7.18;;
50789;SDS011;37287;47.554;7.844;2023-02-12T06:19:16;17.25;;;9.43;;
50789;SDS011;37287;47.554;7.844;2023-02-12T06:21:50;11.13;;;6.97;;
50789;SDS011;37287;47.554;7.844;2023-02-12T06:24:20;12.13;;;6.88;;
50789;SDS011;37287;47.554;7.844;2023-02-12T06:26:48;11.30;;;7.20;;
50789;SDS011;37287;47.554;7.844;2023-02-12T06:29:17;13.38;;;7.45;;
50789;SDS011;37287;47.554;7.844;2023-02-12T06:31:44;11.57;;;7.13;;
50789;SDS011;37287;47.554;7.844;2023-02-12T06:34:11;12.27;;;6.75;;
50789;SDS011;37287;47.554;7.844;2023-02-12T06:36:41;11.23;;;7.38;;
50789;SDS011;37287;47.554;7.844;2023-02-12T06:39:10;10.77;;;6.82;;
50789;SDS011;37287;47.554;7.844;2023-02-12T06:41:38;10.32;;;6.68;;
50789;SDS011;37287;47.554;7.844;2023-02-12T06:44:05;10.13;;;6.78;;
50789;SDS011;37287;47.554;7.844;2023-02-12T06:46:32;12.15;;;8.15;;
50789;SDS011;37287;47.554;7.844;2023-02-12T06:48:59;13.20;;;7.35;;
50789;SDS011;37287;47.554;7.844;2023-02-12T06:51:28;11.35;;;7.18;;
50789;SDS011;37287;47.554;7.844;2023-02-12T06:53:58;12.98;;;7.65;;
50789;SDS011;37287;47.554;7.844;2023-02-12T06:56:25;11.38;;;7.70;;
50789;SDS011;37287;47.554;7.844;2023-02-12T06:58:53;13.90;;;7.18;;
50789;SDS011;37287;47.554;7.844;2023-02-12T07:01:23;11.30;;;6.85;;
50789;SDS011;37287;47.554;7.844;2023-02-12T07:03:52;11.80;;;7.00;;
50789;SDS011;37287;47.554;7.844;2023-02-12T07:06:25;11.93;;;7.07;;
50789;SDS011;37287;47.554;7.844;2023-02-12T07:08:53;10.63;;;6.90;;
50789;SDS011;37287;47.554;7.844;2023-02-12T07:11:24;11.35;;;7.13;;
50789;SDS011;37287;47.554;7.844;2023-02-12T07:13:56;10.98;;;7.25;;
50789;SDS011;37287;47.554;7.844;2023-02-12T07:16:23;10.10;;;6.88;;
50789;SDS011;37287;47.554;7.844;2023-02-12T07:18:56;11.27;;;7.40;;
50789;SDS011;37287;47.554;7.844;2023-02-12T07:21:22;11.07;;;7.13;;
50789;SDS011;37287;47.554;7.844;2023-02-12T07:23:50;12.77;;;7.22;;
50789;SDS011;37287;47.554;7.844;2023-02-12T07:26:18;13.88;;;7.97;;
50789;SDS011;37287;47.554;7.844;2023-02-12T07:28:50;12.35;;;7.50;;
50789;SDS011;37287;47.554;7.844;2023-02-12T07:31:21;11.30;;;7.05;;
50789;SDS011;37287;47.554;7.844;2023-02-12T07:33:48;11.40;;;7.13;;
50789;SDS011;37287;47.554;7.844;2023-02-12T07:36:20;13.45;;;7.75;;
50789;SDS011;37287;47.554;7.844;2023-02-12T07:38:47;14.82;;;8.43;;
50789;SDS011;37287;47.554;7.844;2023-02-12T07:41:15;13.30;;;8.25;;
50789;SDS011;37287;47.554;7.844;2023-02-12T07:43:45;15.32;;;8.73;;
50789;SDS011;37287;47.554;7.844;2023-02-12T07:46:16;13.88;;;8.10;;
50789;SDS011;37287;47.554;7.844;2023-02-12T07:48:46;11.95;;;7.82;;
50789;SDS011;37287;47.554;7.844;2023-02-12T07:51:13;12.57;;;8.45;;
50789;SDS011;37287;47.554;7.844;2023-02-12T07:53:41;13.18;;;8.40;;
50789;SDS011;37287;47.554;7.844;2023-02-12T07:56:11;12.00;;;8.50;;
50789;SDS011;37287;47.554;7.844;2023-02-12T07:58:40;11.93;;;7.68;;
50789;SDS011;37287;47.554;7.844;2023-02-12T08:01:42;13.50;;;8.27;;
50789;SDS011;37287;47.554;7.844;2023-02-12T08:04:13;11.88;;;8.07;;
50789;SDS011;37287;47.554;7.844;2023-02-12T08:06:43;13.30;;;7.80;;
50789;SDS011;37287;47.554;7.844;2023-02-12T08:09:14;12.77;;;7.90;;
50789;SDS011;37287;47.554;7.844;2023-02-12T08:11:43;11.80;;;7.80;;
50789;SDS011;37287;47.554;7.844;2023-02-12T08:14:13;10.95;;;7.97;;
50789;SDS011;37287;47.554;7.844;2023-02-12T08:16:44;14.25;;;8.02;;
50789;SDS011;37287;47.554;7.844;2023-02-12T08:19:11;12.77;;;8.10;;
50789;SDS011;37287;47.554;7.844;2023-02-12T08:21:47;13.85;;;8.35;;
50789;SDS011;37287;47.554;7.844;2023-02-12T08:24:29;11.63;;;7.97;;
50789;SDS011;37287;47.554;7.844;2023-02-12T08:26:55;12.18;;;8.15;;
50789;SDS011;37287;47.554;7.844;2023-02-12T08:29:23;11.85;;;8.60;;
50789;SDS011;37287;47.554;7.844;2023-02-12T08:31:56;12.07;;;8.52;;
50789;SDS011;37287;47.554;7.844;2023-02-12T08:34:28;11.90;;;7.80;;
50789;SDS011;37287;47.554;7.844;2023-02-12T08:36:57;11.95;;;8.30;;
50789;SDS011;37287;47.554;7.844;2023-02-12T08:39:30;13.18;;;8.23;;
50789;SDS011;37287;47.554;7.844;2023-02-12T08:41:57;12.70;;;8.80;;
50789;SDS011;37287;47.554;7.844;2023-02-12T08:44:25;13.20;;;8.50;;
50789;SDS011;37287;47.554;7.844;2023-02-12T08:46:52;11.90;;;7.97;;
50789;SDS011;37287;47.554;7.844;2023-02-12T08:49:21;13.93;;;9.00;;
50789;SDS011;37287;47.554;7.844;2023-02-12T08:51:53;12.93;;;8.50;;
50789;SDS011;37287;47.554;7.844;2023-02-12T08:54:24;13.23;;;8.57;;
50789;SDS011;37287;47.554;7.844;2023-02-12T08:56:53;11.27;;;7.97;;
50789;SDS011;37287;47.554;7.844;2023-02-12T09:01:55;11.68;;;7.68;;
50789;SDS011;37287;47.554;7.844;2023-02-12T09:04:23;12.00;;;7.80;;
50789;SDS011;37287;47.554;7.844;2023-02-12T09:06:55;11.90;;;7.82;;
50789;SDS011;37287;47.554;7.844;2023-02-12T09:09:22;12.43;;;7.90;;
50789;SDS011;37287;47.554;7.844;2023-02-12T09:11:49;14.40;;;9.40;;
50789;SDS011;37287;47.554;7.844;2023-02-12T09:14:20;15.35;;;8.82;;
50789;SDS011;37287;47.554;7.844;2023-02-12T09:16:50;11.10;;;8.05;;
50789;SDS011;37287;47.554;7.844;2023-02-12T09:19:19;13.00;;;9.00;;
50789;SDS011;37287;47.554;7.844;2023-02-12T09:21:49;12.48;;;8.20;;
50789;SDS011;37287;47.554;7.844;2023-02-12T09:24:20;10.65;;;8.13;;
50789;SDS011;37287;47.554;7.844;2023-02-12T09:26:47;12.20;;;8.43;;
50789;SDS011;37287;47.554;7.844;2023-02-12T09:29:15;12.85;;;8.38;;
50789;SDS011;37287;47.554;7.844;2023-02-12T09:31:44;12.07;;;8.25;;
50789;SDS011;37287;47.554;7.844;2023-02-12T09:34:10;12.80;;;8.43;;
50789;SDS011;37287;47.554;7.844;2023-02-12T09:36:37;14.93;;;9.13;;
50789;SDS011;37287;47.554;7.844;2023-02-12T09:39:03;12.13;;;8.70;;
50789;SDS011;37287;47.554;7.844;2023-02-12T09:41:39;13.98;;;9.32;;
50789;SDS011;37287;47.554;7.844;2023-02-12T09:44:20;14.45;;;9.48;;
50789;SDS011;37287;47.554;7.844;2023-02-12T09:46:52;14.48;;;10.13;;
50789;SDS011;37287;47.554;7.844;2023-02-12T09:52:12;11.27;;;8.40;;
50789;SDS011;37287;47.554;7.844;2023-02-12T09:54:42;16.88;;;10.00;;
50789;SDS011;37287;47.554;7.844;2023-02-12T09:57:16;16.50;;;9.48;;
50789;SDS011;37287;47.554;7.844;2023-02-12T09:59:53;12.70;;;8.65;;
50789;SDS011;37287;47.554;7.844;2023-02-12T10:02:24;13.48;;;9.07;;
50789;SDS011;37287;47.554;7.844;2023-02-12T10:04:51;14.88;;;9.02;;
50789;SDS011;37287;47.554;7.844;2023-02-12T10:12:53;13.40;;;8.43;;
50789;SDS011;37287;47.554;7.844;2023-02-12T10:15:31;12.68;;;8.27;;
50789;SDS011;37287;47.554;7.844;2023-02-12T10:21:06;13.23;;;8.30;;
50789;SDS011;37287;47.554;7.844;2023-02-12T10:26:28;11.13;;;8.43;;
50789;SDS011;37287;47.554;7.844;2023-02-12T10:28:58;12.63;;;8.48;;
50789;SDS011;37287;47.554;7.844;2023-02-12T10:31:37;13.65;;;9.15;;
50789;SDS011;37287;47.554;7.844;2023-02-12T10:34:18;11.52;;;8.35;;
50789;SDS011;37287;47.554;7.844;2023-02-12T10:36:48;13.32;;;9.35;;
50789;SDS011;37287;47.554;7.844;2023-02-12T10:39:26;12.52;;;9.00;;
50789;SDS011;37287;47.554;7.844;2023-02-12T10:44:51;10.38;;;7.65;;
50789;SDS011;37287;47.554;7.844;2023-02-12T10:47:19;10.05;;;8.35;;
50789;SDS011;37287;47.554;7.844;2023-02-12T10:49:54;11.35;;;8.07;;
50789;SDS011;37287;47.554;7.844;2023-02-12T10:55:22;12.85;;;7.70;;
50789;SDS011;37287;47.554;7.844;2023-02-12T10:57:50;11.15;;;8.13;;
50789;SDS011;37287;47.554;7.844;2023-02-12T11:00:24;10.05;;;7.50;;
50789;SDS011;37287;47.554;7.844;2023-02-12T11:05:37;12.85;;;9.27;;
50789;SDS011;37287;47.554;7.844;2023-02-12T11:08:14;8.25;;;6.93;;
50789;SDS011;37287;47.554;7.844;2023-02-12T11:10:53;10.73;;;6.60;;
50789;SDS011;37287;47.554;7.844;2023-02-12T11:13:23;10.00;;;6.20;;
50789;SDS011;37287;47.554;7.844;2023-02-12T11:15:53;8.75;;;6.72;;
50789;SDS011;37287;47.554;7.844;2023-02-12T11:18:24;7.05;;;5.32;;
50789;SDS011;37287;47.554;7.844;2023-02-12T11:20:59;9.40;;;6.40;;
50789;SDS011;37287;47.554;7.844;2023-02-12T11:23:39;7.05;;;5.43;;
50789;SDS011;37287;47.554;7.844;2023-02-12T11:31:27;9.13;;;5.72;;
50789;SDS011;37287;47.554;7.844;2023-02-12T11:36:39;6.78;;;5.45;;
50789;SDS011;37287;47.554;7.844;2023-02-12T11:39:23;6.77;;;5.80;;
50789;SDS011;37287;47.554;7.844;2023-02-12T11:42:00;8.95;;;6.82;;
50789;SDS011;37287;47.554;7.844;2023-02-12T11:44:36;8.82;;;6.70;;
50789;SDS011;37287;47.554;7.844;2023-02-12T11:47:10;8.15;;;5.80;;
50789;SDS011;37287;47.554;7.844;2023-02-12T11:52:21;7.30;;;5.95;;
50789;SDS011;37287;47.554;7.844;2023-02-12T11:54:53;9.48;;;5.63;;
50789;SDS011;37287;47.554;7.844;2023-02-12T12:00:12;8.45;;;6.47;;
50789;SDS011;37287;47.554;7.844;2023-02-12T12:03:03;8.30;;;6.28;;
50789;SDS011;37287;47.554;7.844;2023-02-12T12:05:41;7.43;;;5.68;;
50789;SDS011;37287;47.554;7.844;2023-02-12T12:08:17;14.55;;;9.23;;
50789;SDS011;37287;47.554;7.844;2023-02-12T12:13:32;7.05;;;5.85;;
50789;SDS011;37287;47.554;7.844;2023-02-12T12:16:12;9.73;;;6.63;;
50789;SDS011;37287;47.554;7.844;2023-02-12T12:19:03;8.38;;;6.50;;
50789;SDS011;37287;47.554;7.844;2023-02-12T12:22:02;7.43;;;5.80;;
50789;SDS011;37287;47.554;7.844;2023-02-12T12:24:52;7.40;;;5.63;;
50789;SDS011;37287;47.554;7.844;2023-02-12T12:30:41;8.45;;;6.45;;
50789;SDS011;37287;47.554;7.844;2023-02-12T12:36:32;6.88;;;5.78;;
50789;SDS011;37287;47.554;7.844;2023-02-12T12:41:44;7.90;;;6.10;;
50789;SDS011;37287;47.554;7.844;2023-02-12T13:00:52;7.47;;;5.47;;
50789;SDS011;37287;47.554;7.844;2023-02-12T13:03:35;8.00;;;6.10;;
50789;SDS011;37287;47.554;7.844;2023-02-12T13:07:12;6.10;;;5.20;;
50789;SDS011;37287;47.554;7.844;2023-02-12T13:12:29;7.28;;;5.45;;
50789;SDS011;37287;47.554;7.844;2023-02-12T13:26:13;6.75;;;5.30;;
50789;SDS011;37287;47.554;7.844;2023-02-12T13:29:00;5.78;;;4.93;;
50789;SDS011;37287;47.554;7.844;2023-02-12T13:31:42;5.18;;;4.53;;
50789;SDS011;37287;47.554;7.844;2023-02-12T13:34:15;6.18;;;5.25;;
50789;SDS011;37287;47.554;7.844;2023-02-12T13:36:46;7.03;;;5.13;;
50789;SDS011;37287;47.554;7.844;2023-02-12T13:39:36;6.60;;;4.78;;
50789;SDS011;37287;47.554;7.844;2023-02-12T13:50:30;6.13;;;4.45;;
50789;SDS011;37287;47.554;7.844;2023-02-12T14:01:07;5.05;;;4.55;;
50789;SDS011;37287;47.554;7.844;2023-02-12T14:04:12;6.63;;;4.15;;
50789;SDS011;37287;47.554;7.844;2023-02-12T14:06:49;5.65;;;4.43;;
50789;SDS011;37287;47.554;7.844;2023-02-12T14:12:08;5.30;;;4.30;;
50789;SDS011;37287;47.554;7.844;2023-02-12T14:14:39;6.90;;;5.15;;
50789;SDS011;37287;47.554;7.844;2023-02-12T14:20:27;5.20;;;4.40;;
50789;SDS011;37287;47.554;7.844;2023-02-12T14:22:59;4.00;;;3.53;;
50789;SDS011;37287;47.554;7.844;2023-02-12T14:25:30;4.07;;;3.45;;
50789;SDS011;37287;47.554;7.844;2023-02-12T14:28:14;4.00;;;3.58;;
50789;SDS011;37287;47.554;7.844;2023-02-12T14:30:46;3.90;;;3.30;;
50789;SDS011;37287;47.554;7.844;2023-02-12T14:33:49;4.50;;;3.90;;
50789;SDS011;37287;47.554;7.844;2023-02-12T14:38:59;4.90;;;4.03;;
50789;SDS011;37287;47.554;7.844;2023-02-12T14:41:36;3.88;;;3.45;;
50789;SDS011;37287;47.554;7.844;2023-02-12T14:49:24;5.55;;;3.83;;
50789;SDS011;37287;47.554;7.844;2023-02-12T14:57:21;5.30;;;3.80;;
50789;SDS011;37287;47.554;7.844;2023-02-12T14:59:52;4.70;;;3.80;;
50789;SDS011;37287;47.554;7.844;2023-02-12T15:02:28;4.43;;;3.95;;
50789;SDS011;37287;47.554;7.844;2023-02-12T15:05:04;5.40;;;4.10;;
50789;SDS011;37287;47.554;7.844;2023-02-12T15:07:40;4.93;;;3.78;;
50789;SDS011;37287;47.554;7.844;2023-02-12T15:10:18;4.95;;;4.30;;
50789;SDS011;37287;47.554;7.844;2023-02-12T15:12:52;5.57;;;4.85;;
50789;SDS011;37287;47.554;7.844;2023-02-12T15:15:43;6.35;;;4.43;;
50789;SDS011;37287;47.554;7.844;2023-02-12T15:18:25;7.07;;;5.68;;
50789;SDS011;37287;47.554;7.844;2023-02-12T15:21:00;5.95;;;5.35;;
50789;SDS011;37287;47.554;7.844;2023-02-12T15:23:41;8.18;;;6.20;;
50789;SDS011;37287;47.554;7.844;2023-02-12T15:26:15;9.93;;;7.35;;
50789;SDS011;37287;47.554;7.844;2023-02-12T15:28:56;7.30;;;6.15;;
50789;SDS011;37287;47.554;7.844;2023-02-12T15:31:27;6.68;;;5.55;;
50789;SDS011;37287;47.554;7.844;2023-02-12T15:33:57;8.02;;;6.03;;
50789;SDS011;37287;47.554;7.844;2023-02-12T15:36:26;7.55;;;6.22;;
50789;SDS011;37287;47.554;7.844;2023-02-12T15:38:56;9.48;;;6.07;;
50789;SDS011;37287;47.554;7.844;2023-02-12T15:41:26;8.55;;;6.30;;
50789;SDS011;37287;47.554;7.844;2023-02-12T15:44:02;7.85;;;6.22;;
50789;SDS011;37287;47.554;7.844;2023-02-12T15:46:53;11.32;;;7.25;;
50789;SDS011;37287;47.554;7.844;2023-02-12T15:49:20;7.55;;;5.85;;
50789;SDS011;37287;47.554;7.844;2023-02-12T15:51:51;8.15;;;6.20;;
50789;SDS011;37287;47.554;7.844;2023-02-12T15:54:22;7.18;;;5.68;;
50789;SDS011;37287;47.554;7.844;2023-02-12T15:56:49;7.47;;;5.55;;
50789;SDS011;37287;47.554;7.844;2023-02-12T15:59:19;5.85;;;5.25;;
50789;SDS011;37287;47.554;7.844;2023-02-12T16:01:53;7.18;;;5.65;;
50789;SDS011;37287;47.554;7.844;2023-02-12T16:04:22;6.22;;;5.30;;
50789;SDS011;37287;47.554;7.844;2023-02-12T16:06:57;6.55;;;5.68;;
50789;SDS011;37287;47.554;7.844;2023-02-12T16:09:28;6.55;;;5.50;;
50789;SDS011;37287;47.554;7.844;2023-02-12T16:11:58;7.88;;;6.40;;
50789;SDS011;37287;47.554;7.844;2023-02-12T16:14:30;7.28;;;5.93;;
50789;SDS011;37287;47.554;7.844;2023-02-12T16:23:04;8.00;;;5.82;;
50789;SDS011;37287;47.554;7.844;2023-02-12T16:25:21;7.38;;;5.75;;
50789;SDS011;37287;47.554;7.844;2023-02-12T16:30:27;5.13;;;4.63;;
50789;SDS011;37287;47.554;7.844;2023-02-12T16:32:54;6.85;;;5.57;;
50789;SDS011;37287;47.554;7.844;2023-02-12T16:35:22;8.60;;;5.93;;
50789;SDS011;37287;47.554;7.844;2023-02-12T16:37:53;6.53;;;5.25;;
50789;SDS011;37287;47.554;7.844;2023-02-12T16:40:26;7.95;;;6.00;;
50789;SDS011;37287;47.554;7.844;2023-02-12T16:42:56;6.43;;;5.30;;
50789;SDS011;37287;47.554;7.844;2023-02-12T16:48:01;7.85;;;5.53;;
50789;SDS011;37287;47.554;7.844;2023-02-12T16:50:34;7.63;;;5.55;;
50789;SDS011;37287;47.554;7.844;2023-02-12T16:53:05;6.47;;;5.35;;
50789;SDS011;37287;47.554;7.844;2023-02-12T16:55:33;6.60;;;5.65;;
50789;SDS011;37287;47.554;7.844;2023-02-12T16:58:01;7.75;;;5.40;;
50789;SDS011;37287;47.554;7.844;2023-02-12T17:00:28;6.63;;;4.90;;
50789;SDS011;37287;47.554;7.844;2023-02-12T17:02:55;5.95;;;4.72;;
50789;SDS011;37287;47.554;7.844;2023-02-12T17:05:22;5.82;;;4.88;;
50789;SDS011;37287;47.554;7.844;2023-02-12T17:07:49;6.28;;;4.85;;
50789;SDS011;37287;47.554;7.844;2023-02-12T17:10:16;7.07;;;5.50;;
50789;SDS011;37287;47.554;7.844;2023-02-12T17:12:46;6.50;;;5.10;;
50789;SDS011;37287;47.554;7.844;2023-02-12T17:15:21;6.85;;;5.28;;
50789;SDS011;37287;47.554;7.844;2023-02-12T17:17:52;6.72;;;5.40;;
50789;SDS011;37287;47.554;7.844;2023-02-12T17:20:19;6.75;;;5.07;;
50789;SDS011;37287;47.554;7.844;2023-02-12T17:22:52;7.70;;;5.50;;
50789;SDS011;37287;47.554;7.844;2023-02-12T17:25:20;7.18;;;5.60;;
50789;SDS011;37287;47.554;7.844;2023-02-12T17:27:46;7.55;;;5.32;;
50789;SDS011;37287;47.554;7.844;2023-02-12T17:30:17;8.13;;;5.57;;
50789;SDS011;37287;47.554;7.844;2023-02-12T17:32:46;9.15;;;6.82;;
50789;SDS011;37287;47.554;7.844;2023-02-12T17:35:15;9.65;;;6.90;;
50789;SDS011;37287;47.554;7.844;2023-02-12T17:37:41;9.90;;;6.47;;
50789;SDS011;37287;47.554;7.844;2023-02-12T17:40:08;7.43;;;5.85;;
50789;SDS011;37287;47.554;7.844;2023-02-12T17:42:36;9.05;;;6.28;;
50789;SDS011;37287;47.554;7.844;2023-02-12T17:45:03;10.35;;;5.32;;
50789;SDS011;37287;47.554;7.844;2023-02-12T17:47:34;8.82;;;5.55;;
50789;SDS011;37287;47.554;7.844;2023-02-12T17:50:06;8.30;;;5.65;;